Lyme Center, New Hampshire
Current Conditions -  °F | °C
As of 7:53 AM on Thursday 27 Nov 2014 (Local Time) from KLEB Reporting Station
Overcast Overcast  
Wind Chill: -4°   Ceiling: 2300
Heat Index: -1°   Visibility: 10mi
Dew Point: -5°   Wind: 6mph
Humidity: 75%   Direction: 20°NNE
Pressure: 29.91"   Gusts: NA
Location:  43.8°N, 72.12°W
Report Text: KLEB 271253Z 02005KT 10SM OVC023 M01/M05 A2991 RMK AO2 SLP135 T10111050
Loading
Personal Weather Stations






























Interactive Weather Map New forecast layout! Learn more

10-Day Weather Forecast

Advertisements
Track Severe Weather on mobile